createdAt,value
2018-08-03T00:00:15.897Z,0.00
2018-08-03T00:01:15.778Z,0.00
2018-08-03T00:02:17.484Z,0.00
2018-08-03T00:03:15.537Z,0.00
2018-08-03T00:04:15.413Z,0.00
2018-08-03T00:05:15.294Z,0.00
2018-08-03T00:06:15.172Z,0.00
2018-08-03T00:07:15.050Z,0.00
2018-08-03T00:08:14.940Z,0.00
2018-08-03T00:09:14.808Z,0.00
2018-08-03T00:10:14.688Z,0.00
2018-08-03T00:11:14.564Z,0.00
2018-08-03T00:12:14.446Z,0.00
2018-08-03T00:13:14.325Z,0.00
2018-08-03T00:14:14.234Z,0.00
2018-08-03T00:15:14.084Z,0.00
2018-08-03T00:16:13.958Z,0.00
2018-08-03T00:17:13.836Z,0.00
2018-08-03T00:18:13.718Z,0.00
2018-08-03T00:19:13.595Z,0.00
2018-08-03T00:20:13.474Z,0.00
2018-08-03T00:21:13.355Z,0.00
2018-08-03T00:22:13.235Z,0.00
2018-08-03T00:23:13.111Z,0.00
2018-08-03T00:24:12.991Z,0.00
2018-08-03T00:25:12.871Z,0.00
2018-08-03T00:26:12.749Z,0.00
2018-08-03T00:27:14.491Z,0.00
2018-08-03T00:28:12.506Z,0.00
2018-08-03T00:29:12.385Z,0.00
2018-08-03T00:30:12.264Z,0.00
2018-08-03T00:31:12.142Z,0.00
2018-08-03T00:32:12.021Z,0.00
2018-08-03T00:33:11.899Z,0.00
2018-08-03T00:34:11.777Z,0.00
2018-08-03T00:35:11.662Z,0.00
2018-08-03T00:36:11.536Z,0.00
2018-08-03T00:37:11.414Z,0.00
2018-08-03T00:38:11.292Z,0.00
2018-08-03T00:39:11.171Z,0.00
2018-08-03T00:40:11.049Z,0.00
2018-08-03T00:41:10.928Z,0.00
2018-08-03T00:42:10.807Z,0.00
2018-08-03T00:43:10.690Z,0.00
2018-08-03T00:44:10.564Z,0.00
2018-08-03T00:45:10.443Z,0.00
2018-08-03T00:46:10.324Z,0.00
2018-08-03T00:47:11.077Z,0.00
2018-08-03T00:48:10.083Z,0.00
2018-08-03T00:49:09.963Z,0.00
2018-08-03T00:50:09.840Z,0.00
2018-08-03T00:51:11.501Z,0.00
2018-08-03T00:52:09.595Z,0.00
2018-08-03T00:53:09.472Z,0.00
2018-08-03T00:54:09.353Z,0.00
2018-08-03T00:55:09.233Z,0.00
2018-08-03T00:56:09.111Z,0.00
2018-08-03T00:57:10.498Z,0.00
2018-08-03T00:58:08.868Z,0.00
2018-08-03T00:59:08.753Z,0.00
2018-08-03T01:00:08.624Z,0.00
2018-08-03T01:01:08.502Z,0.00
2018-08-03T01:02:08.384Z,0.00
2018-08-03T01:03:08.267Z,0.00
2018-08-03T01:04:08.139Z,0.00
2018-08-03T01:05:08.019Z,0.00
2018-08-03T01:06:07.900Z,0.00
2018-08-03T01:07:07.775Z,0.00
2018-08-03T01:08:07.654Z,0.00
2018-08-03T01:09:07.548Z,0.00
2018-08-03T01:10:07.418Z,0.00
2018-08-03T01:11:07.292Z,0.00
2018-08-03T01:12:07.167Z,0.00
2018-08-03T01:13:07.053Z,0.00
2018-08-03T01:14:06.926Z,0.00
2018-08-03T01:15:06.804Z,0.00
2018-08-03T01:16:07.089Z,0.00
2018-08-03T01:17:06.563Z,0.00
2018-08-03T01:18:06.452Z,0.00
2018-08-03T01:19:06.319Z,0.00
2018-08-03T01:20:06.197Z,0.00
2018-08-03T01:21:06.075Z,0.00
2018-08-03T01:22:05.956Z,0.00
2018-08-03T01:23:05.834Z,0.00
2018-08-03T01:24:05.716Z,0.00
2018-08-03T01:25:05.592Z,0.00
2018-08-03T01:26:05.473Z,0.00
2018-08-03T01:27:05.349Z,0.00
2018-08-03T01:28:05.228Z,0.00
2018-08-03T01:29:05.112Z,0.00
2018-08-03T01:30:04.987Z,0.00
2018-08-03T01:31:04.869Z,0.00
2018-08-03T01:32:04.748Z,0.00
2018-08-03T01:33:04.623Z,0.00
2018-08-03T01:34:04.501Z,0.00
2018-08-03T01:35:04.381Z,0.00
2018-08-03T01:36:04.259Z,0.00
2018-08-03T01:37:04.137Z,0.00
2018-08-03T01:38:04.021Z,0.00
2018-08-03T01:39:03.901Z,0.00
2018-08-03T01:40:03.776Z,0.00
2018-08-03T01:41:03.655Z,0.00
2018-08-03T01:42:03.543Z,0.00
2018-08-03T01:43:03.411Z,0.00
2018-08-03T01:44:03.290Z,0.00
2018-08-03T01:45:03.169Z,0.00
2018-08-03T01:46:03.052Z,0.00
2018-08-03T01:47:02.928Z,0.00
2018-08-03T01:48:02.814Z,0.00
2018-08-03T01:49:02.683Z,0.00
2018-08-03T01:50:02.568Z,0.00
2018-08-03T01:51:02.448Z,0.00
2018-08-03T01:52:02.323Z,0.00
2018-08-03T01:53:02.200Z,0.00
2018-08-03T01:54:02.079Z,0.00
2018-08-03T01:55:01.960Z,0.00
2018-08-03T01:56:01.838Z,0.00
2018-08-03T01:57:01.717Z,0.00
2018-08-03T01:58:01.595Z,0.00
2018-08-03T01:59:01.486Z,0.00
2018-08-03T02:00:01.353Z,0.00
2018-08-03T02:01:01.231Z,0.00
2018-08-03T02:02:01.114Z,0.00
2018-08-03T02:03:00.995Z,0.00
2018-08-03T02:04:00.878Z,0.00
2018-08-03T02:05:00.747Z,0.00
2018-08-03T02:06:02.515Z,0.00
2018-08-03T02:07:00.506Z,0.00
2018-08-03T02:08:00.385Z,0.00
2018-08-03T02:09:00.260Z,0.00
2018-08-03T02:10:00.140Z,0.00
2018-08-03T02:11:00.018Z,0.00
2018-08-03T02:11:59.896Z,0.00
2018-08-03T02:12:59.776Z,0.00
2018-08-03T02:13:59.759Z,0.00
2018-08-03T02:14:59.533Z,0.00
2018-08-03T02:15:59.415Z,0.00
2018-08-03T02:16:59.296Z,0.00
2018-08-03T02:17:59.171Z,0.00
2018-08-03T02:18:59.061Z,0.00
2018-08-03T02:19:58.924Z,0.00
2018-08-03T02:20:58.814Z,0.00
2018-08-03T02:21:58.685Z,0.00
2018-08-03T02:22:58.561Z,0.00
2018-08-03T02:23:58.442Z,0.00
2018-08-03T02:24:58.322Z,0.00
2018-08-03T02:25:58.197Z,0.00
2018-08-03T02:26:58.076Z,0.00
2018-08-03T02:27:57.956Z,0.00
2018-08-03T02:28:57.832Z,0.00
2018-08-03T02:29:57.710Z,0.00
2018-08-03T02:30:57.594Z,0.00
2018-08-03T02:31:59.025Z,0.00
2018-08-03T02:32:57.347Z,0.00
2018-08-03T02:33:57.227Z,0.00
2018-08-03T02:34:57.102Z,0.00
2018-08-03T02:35:56.984Z,0.00
2018-08-03T02:36:56.860Z,0.00
2018-08-03T02:37:58.526Z,0.00
2018-08-03T02:38:56.617Z,0.00
2018-08-03T02:39:56.498Z,0.00
2018-08-03T02:40:56.377Z,0.00
2018-08-03T02:41:56.264Z,0.00
2018-08-03T02:42:56.131Z,0.00
2018-08-03T02:43:56.016Z,0.00
2018-08-03T02:44:55.888Z,0.00
2018-08-03T02:45:55.765Z,0.00
2018-08-03T02:46:55.644Z,0.00
2018-08-03T02:47:55.522Z,0.00
2018-08-03T02:48:55.403Z,0.00
2018-08-03T02:49:55.295Z,0.00
2018-08-03T02:50:55.159Z,0.00
2018-08-03T02:51:55.036Z,0.00
2018-08-03T02:52:54.915Z,0.00
2018-08-03T02:53:54.795Z,0.00
2018-08-03T02:54:54.671Z,0.00
2018-08-03T02:55:54.548Z,0.00
2018-08-03T02:56:54.430Z,0.00
2018-08-03T02:57:54.306Z,0.00
2018-08-03T02:58:54.187Z,0.00
2018-08-03T02:59:54.063Z,0.00
2018-08-03T03:00:53.942Z,0.00
2018-08-03T03:01:53.820Z,0.00
2018-08-03T03:02:53.701Z,0.00
2018-08-03T03:03:53.578Z,0.00
2018-08-03T03:04:53.456Z,0.00
2018-08-03T03:05:53.336Z,0.00
2018-08-03T03:06:53.215Z,0.00
2018-08-03T03:07:53.090Z,0.00
2018-08-03T03:08:52.969Z,0.00
2018-08-03T03:09:52.849Z,0.00
2018-08-03T03:10:52.727Z,0.00
2018-08-03T03:11:52.606Z,0.00
2018-08-03T03:12:53.093Z,0.00
2018-08-03T03:13:52.363Z,0.00
2018-08-03T03:14:52.242Z,0.00
2018-08-03T03:15:52.116Z,0.00
2018-08-03T03:16:51.998Z,0.00
2018-08-03T03:17:51.877Z,0.00
2018-08-03T03:18:51.764Z,0.00
2018-08-03T03:19:51.632Z,0.00
2018-08-03T03:20:51.509Z,0.00
2018-08-03T03:21:51.389Z,0.00
2018-08-03T03:22:51.266Z,0.00
2018-08-03T03:23:51.145Z,0.00
2018-08-03T03:24:51.033Z,0.00
2018-08-03T03:25:50.902Z,0.00
2018-08-03T03:26:50.780Z,0.00
2018-08-03T03:27:50.657Z,0.00
2018-08-03T03:28:50.541Z,0.00
2018-08-03T03:29:50.414Z,0.00
2018-08-03T03:30:50.297Z,0.00
2018-08-03T03:31:50.173Z,0.00
2018-08-03T03:32:50.056Z,0.00
2018-08-03T03:33:49.931Z,0.00
2018-08-03T03:34:49.805Z,0.00
2018-08-03T03:35:49.684Z,0.00
2018-08-03T03:36:49.563Z,0.00
2018-08-03T03:37:49.442Z,0.00
2018-08-03T03:38:49.319Z,0.00
2018-08-03T03:39:49.196Z,0.00
2018-08-03T03:40:49.078Z,4.00
2018-08-03T03:41:49.093Z,4.00
2018-08-03T03:42:48.830Z,0.00
2018-08-03T03:43:48.713Z,4.00
2018-08-03T03:44:50.543Z,4.00
2018-08-03T03:45:50.043Z,4.00
2018-08-03T03:46:48.344Z,4.00
2018-08-03T03:47:48.223Z,8.00
2018-08-03T03:48:48.102Z,4.00
2018-08-03T03:49:47.987Z,8.00
2018-08-03T03:50:47.858Z,12.00
2018-08-03T03:51:49.543Z,12.00
2018-08-03T03:52:47.619Z,12.00
2018-08-03T03:53:47.492Z,16.00
2018-08-03T03:54:47.370Z,16.00
2018-08-03T03:55:47.249Z,20.00
2018-08-03T03:56:47.128Z,24.00
2018-08-03T03:57:47.007Z,24.00
2018-08-03T03:58:46.885Z,28.00
2018-08-03T03:59:46.788Z,36.00
2018-08-03T04:00:46.638Z,36.00
2018-08-03T04:01:46.521Z,40.00
2018-08-03T04:02:46.398Z,44.00
2018-08-03T04:03:46.292Z,44.00
2018-08-03T04:04:46.151Z,52.00
2018-08-03T04:05:46.031Z,56.00
2018-08-03T04:06:45.920Z,60.00
2018-08-03T04:07:45.787Z,64.00
2018-08-03T04:08:45.684Z,72.00
2018-08-03T04:09:45.547Z,76.00
2018-08-03T04:10:45.423Z,80.00
2018-08-03T04:11:45.304Z,84.00
2018-08-03T04:12:45.178Z,96.00
2018-08-03T04:13:45.057Z,100.00
2018-08-03T04:14:44.934Z,104.00
2018-08-03T04:15:44.816Z,116.00
2018-08-03T04:16:46.552Z,124.00
2018-08-03T04:17:44.570Z,128.00
2018-08-03T04:18:44.463Z,136.00
2018-08-03T04:19:44.324Z,144.00
2018-08-03T04:20:46.051Z,152.00
2018-08-03T04:21:44.081Z,160.00
2018-08-03T04:22:43.960Z,172.00
2018-08-03T04:23:43.839Z,176.00
2018-08-03T04:24:45.902Z,188.00
2018-08-03T04:25:43.595Z,192.00
2018-08-03T04:26:43.473Z,200.00
2018-08-03T04:27:43.350Z,212.00
2018-08-03T04:28:43.231Z,220.00
2018-08-03T04:29:43.108Z,228.00
2018-08-03T04:30:42.987Z,236.00
2018-08-03T04:31:42.864Z,244.00
2018-08-03T04:32:42.741Z,252.00
2018-08-03T04:33:42.619Z,260.00
2018-08-03T04:34:42.502Z,268.00
2018-08-03T04:35:42.378Z,272.00
2018-08-03T04:36:42.261Z,284.00
2018-08-03T04:37:42.134Z,292.00
2018-08-03T04:38:42.015Z,300.00
2018-08-03T04:39:41.892Z,308.00
2018-08-03T04:40:41.771Z,312.00
2018-08-03T04:41:41.648Z,320.00
2018-08-03T04:42:41.525Z,328.00
2018-08-03T04:43:41.407Z,332.00
2018-08-03T04:44:41.282Z,340.00
2018-08-03T04:45:41.210Z,348.00
2018-08-03T04:46:41.041Z,352.00
2018-08-03T04:47:40.917Z,360.00
2018-08-03T04:48:40.856Z,368.00
2018-08-03T04:49:40.681Z,372.00
2018-08-03T04:50:40.553Z,380.00
2018-08-03T04:51:40.433Z,388.00
2018-08-03T04:52:40.312Z,392.00
2018-08-03T04:53:40.193Z,396.00
2018-08-03T04:54:40.095Z,400.00
2018-08-03T04:55:39.967Z,412.00
2018-08-03T04:56:39.836Z,424.00
2018-08-03T04:57:39.710Z,440.00
2018-08-03T04:58:39.584Z,448.00
2018-08-03T04:59:39.462Z,472.00
2018-08-03T05:00:39.344Z,500.00
2018-08-03T05:01:39.218Z,524.00
2018-08-03T05:02:39.101Z,528.00
2018-08-03T05:03:38.976Z,536.00
2018-08-03T05:04:38.870Z,544.00
2018-08-03T05:05:38.735Z,552.00
2018-08-03T05:06:38.614Z,560.00
2018-08-03T05:07:38.493Z,572.00
2018-08-03T05:08:38.374Z,576.00
2018-08-03T05:09:39.101Z,584.00
2018-08-03T05:10:38.130Z,592.00
2018-08-03T05:11:38.006Z,604.00
2018-08-03T05:12:37.891Z,616.00
2018-08-03T05:13:37.766Z,624.00
2018-08-03T05:14:37.645Z,636.00
2018-08-03T05:15:37.523Z,648.00
2018-08-03T05:16:37.406Z,656.00
2018-08-03T05:17:37.284Z,664.00
2018-08-03T05:18:37.158Z,672.00
2018-08-03T05:19:37.042Z,676.00
2018-08-03T05:20:36.919Z,684.00
2018-08-03T05:21:36.797Z,692.00
2018-08-03T05:22:36.677Z,700.00
2018-08-03T05:23:36.556Z,708.00
2018-08-03T05:24:36.448Z,716.00
2018-08-03T05:25:36.315Z,720.00
2018-08-03T05:26:36.193Z,728.00
2018-08-03T05:27:36.072Z,736.00
2018-08-03T05:28:35.951Z,744.00
2018-08-03T05:29:35.832Z,748.00
2018-08-03T05:30:35.710Z,756.00
2018-08-03T05:31:35.590Z,768.00
2018-08-03T05:32:35.469Z,772.00
2018-08-03T05:33:35.352Z,776.00
2018-08-03T05:34:35.229Z,780.00
2018-08-03T05:35:35.155Z,792.00
2018-08-03T05:36:34.990Z,800.00
2018-08-03T05:37:34.868Z,808.00
2018-08-03T05:38:35.105Z,816.00
2018-08-03T05:39:34.626Z,820.00
2018-08-03T05:40:34.505Z,824.00
2018-08-03T05:41:34.385Z,832.00
2018-08-03T05:42:34.337Z,836.00
2018-08-03T05:43:34.144Z,844.00
2018-08-03T05:44:34.026Z,848.00
2018-08-03T05:45:33.973Z,852.00
2018-08-03T05:46:33.787Z,856.00
2018-08-03T05:47:33.668Z,864.00
2018-08-03T05:48:33.547Z,864.00
2018-08-03T05:49:33.424Z,864.00
2018-08-03T05:50:33.303Z,868.00
2018-08-03T05:51:33.183Z,872.00
2018-08-03T05:52:33.078Z,880.00
2018-08-03T05:53:32.943Z,884.00
2018-08-03T05:54:32.844Z,888.00
2018-08-03T05:55:32.703Z,892.00
2018-08-03T05:56:32.592Z,896.00
2018-08-03T05:57:32.471Z,904.00
2018-08-03T05:58:32.345Z,912.00
2018-08-03T05:59:32.222Z,920.00
2018-08-03T06:00:32.105Z,928.00
2018-08-03T06:01:31.984Z,932.00
2018-08-03T06:02:31.864Z,936.00
2018-08-03T06:03:31.745Z,940.00
2018-08-03T06:04:31.627Z,944.00
2018-08-03T06:05:31.506Z,948.00
2018-08-03T06:06:31.387Z,952.00
2018-08-03T06:07:31.268Z,956.00
2018-08-03T06:08:31.147Z,960.00
2018-08-03T06:09:31.079Z,972.00
2018-08-03T06:10:30.912Z,980.00
2018-08-03T06:11:30.787Z,988.00
2018-08-03T06:12:30.667Z,992.00
2018-08-03T06:13:30.549Z,1000.00
2018-08-03T06:14:30.432Z,1004.00
2018-08-03T06:15:30.309Z,1008.00
2018-08-03T06:16:30.189Z,1016.00
2018-08-03T06:17:30.074Z,1024.00
2018-08-03T06:18:29.951Z,1028.00
2018-08-03T06:19:29.829Z,1028.00
2018-08-03T06:20:29.708Z,1036.00
2018-08-03T06:21:29.591Z,1040.00
2018-08-03T06:22:29.471Z,1044.00
2018-08-03T06:23:29.355Z,1040.00
2018-08-03T06:24:29.231Z,1044.00
2018-08-03T06:25:29.117Z,1052.00
2018-08-03T06:26:28.995Z,1048.00
2018-08-03T06:27:28.871Z,1052.00
2018-08-03T06:28:28.794Z,1056.00
2018-08-03T06:29:28.665Z,1060.00
2018-08-03T06:30:28.515Z,1064.00
2018-08-03T06:31:28.394Z,1068.00
2018-08-03T06:32:28.274Z,1072.00
2018-08-03T06:33:28.223Z,1076.00
2018-08-03T06:34:28.041Z,1072.00
2018-08-03T06:35:27.922Z,1080.00
2018-08-03T06:36:27.798Z,1084.00
2018-08-03T06:37:27.685Z,1084.00
2018-08-03T06:38:27.560Z,1088.00
2018-08-03T06:39:27.439Z,1088.00
2018-08-03T06:40:27.323Z,1096.00
2018-08-03T06:41:27.202Z,1096.00
2018-08-03T06:42:27.080Z,1100.00
2018-08-03T06:43:26.969Z,1096.00
2018-08-03T06:44:26.842Z,1100.00
2018-08-03T06:45:26.723Z,1104.00
2018-08-03T06:46:26.603Z,1116.00
2018-08-03T06:47:26.484Z,1116.00
2018-08-03T06:48:26.403Z,1120.00
2018-08-03T06:49:26.247Z,1120.00
2018-08-03T06:50:26.126Z,1120.00
2018-08-03T06:51:26.007Z,1120.00
2018-08-03T06:52:25.889Z,1128.00
2018-08-03T06:53:25.770Z,1128.00
2018-08-03T06:54:25.659Z,1132.00
2018-08-03T06:55:25.530Z,1140.00
2018-08-03T06:56:25.415Z,1144.00
2018-08-03T06:57:25.308Z,1148.00
2018-08-03T06:58:25.194Z,1152.00
2018-08-03T06:59:25.075Z,1156.00
2018-08-03T07:00:24.937Z,1160.00
2018-08-03T07:01:24.816Z,1164.00
2018-08-03T07:02:24.715Z,1168.00
2018-08-03T07:03:24.586Z,1172.00
2018-08-03T07:04:24.488Z,1180.00
2018-08-03T07:05:24.343Z,1180.00
2018-08-03T07:06:25.136Z,1192.00
2018-08-03T07:07:24.105Z,1196.00
2018-08-03T07:08:24.019Z,1200.00
2018-08-03T07:09:23.867Z,1208.00
2018-08-03T07:10:23.749Z,1212.00
2018-08-03T07:11:23.630Z,1216.00
2018-08-03T07:12:23.511Z,1224.00
2018-08-03T07:13:23.390Z,1224.00
2018-08-03T07:14:23.274Z,1232.00
2018-08-03T07:15:23.159Z,1236.00
2018-08-03T07:16:23.037Z,1240.00
2018-08-03T07:17:22.918Z,1248.00
2018-08-03T07:18:22.800Z,1260.00
2018-08-03T07:19:22.680Z,1268.00
2018-08-03T07:20:22.773Z,1272.00
2018-08-03T07:21:22.443Z,1280.00
2018-08-03T07:22:22.331Z,1292.00
2018-08-03T07:23:22.205Z,1288.00
2018-08-03T07:24:22.090Z,1296.00
2018-08-03T07:25:23.603Z,1304.00
2018-08-03T07:26:21.852Z,1304.00
2018-08-03T07:27:21.733Z,1312.00
2018-08-03T07:28:21.616Z,1316.00
2018-08-03T07:29:21.498Z,1324.00
2018-08-03T07:30:21.382Z,1332.00
2018-08-03T07:31:21.264Z,1328.00
2018-08-03T07:32:21.143Z,1320.00
2018-08-03T07:33:21.025Z,1332.00
2018-08-03T07:34:20.909Z,1324.00
2018-08-03T07:35:21.137Z,1320.00
2018-08-03T07:36:20.669Z,1336.00
2018-08-03T07:37:20.553Z,1340.00
2018-08-03T07:38:20.435Z,1356.00
2018-08-03T07:39:20.315Z,1320.00
2018-08-03T07:40:20.199Z,1340.00
2018-08-03T07:41:20.081Z,1368.00
2018-08-03T07:42:19.970Z,1308.00
2018-08-03T07:43:19.920Z,1344.00
2018-08-03T07:44:19.777Z,1356.00
2018-08-03T07:45:19.611Z,1416.00
2018-08-03T07:46:19.493Z,1452.00
2018-08-03T07:47:19.374Z,1484.00
2018-08-03T07:48:19.255Z,1584.00
2018-08-03T07:49:19.140Z,1524.00
2018-08-03T07:50:19.020Z,1584.00
2018-08-03T07:51:18.902Z,1676.00
2018-08-03T07:52:18.787Z,1728.00
2018-08-03T07:53:18.671Z,1700.00
2018-08-03T07:54:18.550Z,1692.00
2018-08-03T07:55:18.433Z,1680.00
2018-08-03T07:56:18.315Z,1752.00
2018-08-03T07:57:18.202Z,1744.00
2018-08-03T07:58:18.080Z,1760.00
2018-08-03T07:59:17.966Z,1772.00
2018-08-03T08:00:17.845Z,1856.00
2018-08-03T08:01:17.727Z,1868.00
2018-08-03T08:02:17.611Z,1936.00
2018-08-03T08:03:17.510Z,1952.00
2018-08-03T08:04:17.375Z,1936.00
2018-08-03T08:05:17.258Z,1964.00
2018-08-03T08:06:17.161Z,1940.00
2018-08-03T08:07:17.023Z,2044.00
2018-08-03T08:08:16.907Z,2012.00
2018-08-03T08:09:16.789Z,2020.00
2018-08-03T08:10:16.675Z,2012.00
2018-08-03T08:11:16.554Z,2036.00
2018-08-03T08:12:16.435Z,1992.00
2018-08-03T08:13:16.318Z,2004.00
2018-08-03T08:14:16.200Z,2004.00
2018-08-03T08:15:16.125Z,1984.00
2018-08-03T08:16:15.970Z,1940.00
2018-08-03T08:17:15.850Z,1868.00
2018-08-03T08:18:15.733Z,1860.00
2018-08-03T08:19:15.617Z,1860.00
2018-08-03T08:20:15.582Z,1952.00
2018-08-03T08:21:15.384Z,1768.00
2018-08-03T08:22:15.265Z,1756.00
2018-08-03T08:23:17.125Z,1788.00
2018-08-03T08:24:16.621Z,1788.00
2018-08-03T08:25:14.915Z,1780.00
2018-08-03T08:26:14.891Z,1696.00
2018-08-03T08:27:14.682Z,1704.00
2018-08-03T08:28:14.563Z,1684.00
2018-08-03T08:29:14.449Z,1688.00
2018-08-03T08:30:14.331Z,1664.00
2018-08-03T08:31:14.215Z,1616.00
2018-08-03T08:32:14.098Z,1604.00
2018-08-03T08:33:13.984Z,1576.00
2018-08-03T08:34:13.868Z,1588.00
2018-08-03T08:35:13.753Z,1588.00
2018-08-03T08:36:13.635Z,1564.00
2018-08-03T08:37:13.517Z,1552.00
2018-08-03T08:38:13.405Z,1540.00
2018-08-03T08:39:13.283Z,1528.00
2018-08-03T08:40:13.191Z,1524.00
2018-08-03T08:41:13.053Z,1520.00
2018-08-03T08:42:12.935Z,1512.00
2018-08-03T08:43:12.818Z,1508.00
2018-08-03T08:44:12.706Z,1504.00
2018-08-03T08:45:12.588Z,1508.00
2018-08-03T08:46:12.473Z,1508.00
2018-08-03T08:47:12.406Z,1512.00
2018-08-03T08:48:12.350Z,1512.00
2018-08-03T08:49:12.128Z,1516.00
2018-08-03T08:50:12.012Z,1516.00
2018-08-03T08:51:11.955Z,1516.00
2018-08-03T08:52:11.814Z,1520.00
2018-08-03T08:53:11.709Z,1524.00
2018-08-03T08:54:11.551Z,1520.00
2018-08-03T08:55:11.433Z,1516.00
2018-08-03T08:56:11.359Z,1512.00
2018-08-03T08:57:11.198Z,1512.00
2018-08-03T08:58:11.224Z,1512.00
2018-08-03T08:59:12.635Z,1516.00
2018-08-03T09:00:10.882Z,1512.00
2018-08-03T09:01:10.972Z,1512.00
2018-08-03T09:02:10.651Z,1512.00
2018-08-03T09:03:11.647Z,1504.00
2018-08-03T09:04:10.483Z,1508.00
2018-08-03T09:05:10.272Z,1516.00
2018-08-03T09:06:10.153Z,1516.00
2018-08-03T09:07:10.043Z,1524.00
2018-08-03T09:08:09.922Z,1520.00
2018-08-03T09:09:09.811Z,1520.00
2018-08-03T09:10:09.691Z,1520.00
2018-08-03T09:11:09.573Z,1524.00
2018-08-03T09:12:09.457Z,1496.00
2018-08-03T09:13:09.370Z,1484.00
2018-08-03T09:14:09.229Z,1480.00
2018-08-03T09:15:09.116Z,1488.00
2018-08-03T09:16:08.999Z,1488.00
2018-08-03T09:17:08.891Z,1468.00
2018-08-03T09:18:08.769Z,1472.00
2018-08-03T09:19:08.653Z,1488.00
2018-08-03T09:20:08.537Z,1500.00
2018-08-03T09:21:08.422Z,1512.00
2018-08-03T09:22:08.428Z,1504.00
2018-08-03T09:23:08.198Z,1508.00
2018-08-03T09:24:08.079Z,1536.00
2018-08-03T09:25:07.962Z,1520.00
2018-08-03T09:26:07.847Z,1532.00
2018-08-03T09:27:07.733Z,1560.00
2018-08-03T09:28:07.617Z,1576.00
2018-08-03T09:29:07.502Z,1592.00
2018-08-03T09:30:07.388Z,1592.00
2018-08-03T09:31:07.389Z,1616.00
2018-08-03T09:32:07.161Z,1604.00
2018-08-03T09:33:07.042Z,1620.00
2018-08-03T09:34:06.942Z,1624.00
2018-08-03T09:35:06.812Z,1652.00
2018-08-03T09:36:06.697Z,1652.00
2018-08-03T09:37:06.581Z,1656.00
2018-08-03T09:38:06.468Z,1668.00
2018-08-03T09:39:06.353Z,1668.00
2018-08-03T09:40:06.238Z,1672.00
2018-08-03T09:41:06.123Z,1680.00
2018-08-03T09:42:06.004Z,1692.00
2018-08-03T09:43:05.893Z,1704.00
2018-08-03T09:44:05.780Z,1716.00
2018-08-03T09:45:05.663Z,1736.00
2018-08-03T09:46:05.545Z,1744.00
2018-08-03T09:47:05.429Z,1760.00
2018-08-03T09:48:05.318Z,1756.00
2018-08-03T09:49:07.174Z,1752.00
2018-08-03T09:50:05.086Z,1752.00
2018-08-03T09:51:04.973Z,1768.00
2018-08-03T09:52:04.857Z,1792.00
2018-08-03T09:53:04.741Z,1804.00
2018-08-03T09:54:04.626Z,1808.00
2018-08-03T09:55:04.571Z,1808.00
2018-08-03T09:56:04.401Z,1804.00
2018-08-03T09:57:04.281Z,1804.00
2018-08-03T09:58:04.169Z,1812.00
2018-08-03T09:59:04.052Z,1836.00
2018-08-03T10:00:03.937Z,1860.00
2018-08-03T10:01:03.824Z,1880.00
2018-08-03T10:02:03.710Z,1892.00
2018-08-03T10:03:03.593Z,1908.00
2018-08-03T10:04:03.476Z,1912.00
2018-08-03T10:05:03.363Z,1936.00
2018-08-03T10:06:03.250Z,1964.00
2018-08-03T10:07:03.133Z,1984.00
2018-08-03T10:08:03.021Z,2008.00
2018-08-03T10:09:02.906Z,2032.00
2018-08-03T10:10:02.814Z,2048.00
2018-08-03T10:11:02.676Z,2084.00
2018-08-03T10:12:02.567Z,2100.00
2018-08-03T10:13:02.451Z,2108.00
2018-08-03T10:14:02.334Z,2116.00
2018-08-03T10:15:02.221Z,2132.00
2018-08-03T10:16:02.105Z,2140.00
2018-08-03T10:17:01.995Z,2128.00
2018-08-03T10:18:01.879Z,2124.00
2018-08-03T10:19:01.765Z,2144.00
2018-08-03T10:20:01.654Z,2164.00
2018-08-03T10:21:01.536Z,2176.00
2018-08-03T10:22:01.422Z,2192.00
2018-08-03T10:23:01.311Z,2216.00
2018-08-03T10:24:01.198Z,2236.00
2018-08-03T10:25:01.089Z,2248.00
2018-08-03T10:26:00.969Z,2268.00
2018-08-03T10:27:00.854Z,2296.00
2018-08-03T10:28:00.739Z,2324.00
2018-08-03T10:29:03.165Z,2344.00
2018-08-03T10:30:00.516Z,2360.00
2018-08-03T10:31:01.168Z,2384.00
2018-08-03T10:32:00.289Z,2404.00
2018-08-03T10:33:00.175Z,2424.00
2018-08-03T10:34:00.059Z,2436.00
2018-08-03T10:34:59.998Z,2448.00
2018-08-03T10:35:59.833Z,2480.00
2018-08-03T10:37:01.671Z,2504.00
2018-08-03T10:37:59.605Z,2528.00
2018-08-03T10:38:59.494Z,2556.00
2018-08-03T10:39:59.380Z,2576.00
2018-08-03T10:40:59.268Z,2568.00
2018-08-03T10:41:59.162Z,2580.00
2018-08-03T10:42:59.167Z,2596.00
2018-08-03T10:43:58.929Z,2616.00
2018-08-03T10:44:58.817Z,2632.00
2018-08-03T10:45:58.704Z,2644.00
2018-08-03T10:46:58.592Z,2660.00
2018-08-03T10:47:58.480Z,2644.00
2018-08-03T10:48:58.363Z,2628.00
2018-08-03T10:49:58.253Z,2640.00
2018-08-03T10:50:58.140Z,2660.00
2018-08-03T10:51:58.028Z,2704.00
2018-08-03T10:52:57.918Z,2732.00
2018-08-03T10:53:57.805Z,2728.00
2018-08-03T10:54:57.691Z,2736.00
2018-08-03T10:55:57.579Z,2740.00
2018-08-03T10:56:57.469Z,2760.00
2018-08-03T10:57:57.358Z,2800.00
2018-08-03T10:58:57.242Z,2856.00
2018-08-03T10:59:57.203Z,2880.00
2018-08-03T11:00:57.022Z,2896.00
2018-08-03T11:01:56.910Z,2908.00
2018-08-03T11:02:56.795Z,2928.00
2018-08-03T11:03:56.686Z,2944.00
2018-08-03T11:04:56.573Z,2956.00
2018-08-03T11:05:58.180Z,2964.00
2018-08-03T11:06:56.414Z,2972.00
2018-08-03T11:07:56.237Z,2988.00
2018-08-03T11:08:56.127Z,3012.00
2018-08-03T11:09:56.019Z,3036.00
2018-08-03T11:10:55.904Z,3076.00
2018-08-03T11:11:55.791Z,3112.00
2018-08-03T11:12:55.680Z,3140.00
2018-08-03T11:13:55.578Z,3168.00
2018-08-03T11:14:55.459Z,3216.00
2018-08-03T11:15:55.351Z,3296.00
2018-08-03T11:16:55.235Z,3424.00
2018-08-03T11:17:56.684Z,3472.00
2018-08-03T11:18:55.021Z,3512.00
2018-08-03T11:19:54.907Z,3544.00
2018-08-03T11:20:54.799Z,3604.00
2018-08-03T11:21:54.688Z,3656.00
2018-08-03T11:22:54.574Z,3656.00
2018-08-03T11:23:54.463Z,3632.00
2018-08-03T11:24:54.354Z,3636.00
2018-08-03T11:25:54.244Z,3656.00
2018-08-03T11:26:54.136Z,3656.00
2018-08-03T11:27:54.025Z,3684.00
2018-08-03T11:28:53.913Z,3684.00
2018-08-03T11:29:53.809Z,3720.00
2018-08-03T11:30:53.692Z,3744.00
2018-08-03T11:31:53.588Z,3776.00
2018-08-03T11:32:53.474Z,3812.00
2018-08-03T11:33:53.369Z,3788.00
2018-08-03T11:34:53.255Z,3728.00
2018-08-03T11:35:53.145Z,3688.00
2018-08-03T11:36:53.035Z,3656.00
2018-08-03T11:37:52.925Z,3656.00
2018-08-03T11:38:52.816Z,3664.00
2018-08-03T11:39:52.707Z,3688.00
2018-08-03T11:40:52.648Z,3708.00
2018-08-03T11:41:52.487Z,3716.00
2018-08-03T11:42:52.377Z,3756.00
2018-08-03T11:43:52.271Z,3788.00
2018-08-03T11:44:52.163Z,3824.00
2018-08-03T11:45:52.049Z,3880.00
2018-08-03T11:46:51.937Z,3984.00
2018-08-03T11:47:51.828Z,3996.00
2018-08-03T11:48:51.722Z,3924.00
2018-08-03T11:49:51.610Z,4128.00
2018-08-03T11:50:51.499Z,4364.00
2018-08-03T11:51:51.389Z,4440.00
2018-08-03T11:52:51.280Z,4376.00
2018-08-03T11:53:51.170Z,4416.00
2018-08-03T11:54:51.060Z,4544.00
2018-08-03T11:55:52.697Z,4540.00
2018-08-03T11:56:50.847Z,4292.00
2018-08-03T11:57:50.733Z,4108.00
2018-08-03T11:58:51.209Z,4136.00
2018-08-03T11:59:50.511Z,4196.00
2018-08-03T12:00:50.455Z,4300.00
2018-08-03T12:01:50.299Z,4428.00
2018-08-03T12:02:50.189Z,4456.00
2018-08-03T12:03:50.079Z,4420.00
2018-08-03T12:04:49.966Z,4488.00
2018-08-03T12:05:49.856Z,4532.00
2018-08-03T12:06:49.750Z,4484.00
2018-08-03T12:07:49.640Z,4580.00
2018-08-03T12:08:49.671Z,4816.00
2018-08-03T12:09:49.424Z,4912.00
2018-08-03T12:10:49.309Z,5044.00
2018-08-03T12:11:50.703Z,5244.00
2018-08-03T12:12:49.092Z,5360.00
2018-08-03T12:13:48.986Z,5528.00
2018-08-03T12:14:48.876Z,5620.00
2018-08-03T12:15:48.771Z,5692.00
2018-08-03T12:16:48.661Z,5776.00
2018-08-03T12:17:48.574Z,5820.00
2018-08-03T12:18:48.444Z,5832.00
2018-08-03T12:19:48.338Z,5844.00
2018-08-03T12:20:48.229Z,6356.00
2018-08-03T12:21:48.133Z,6756.00
2018-08-03T12:22:48.012Z,7164.00
2018-08-03T12:23:47.927Z,7416.00
2018-08-03T12:24:47.795Z,7340.00
2018-08-03T12:25:47.691Z,7116.00
2018-08-03T12:26:47.579Z,7212.00
2018-08-03T12:27:47.475Z,7724.00
2018-08-03T12:28:47.365Z,8160.00
2018-08-03T12:29:47.259Z,7888.00